createdAt,value
2018-07-09T00:00:16.000Z,25.9
2018-07-09T00:02:16.000Z,25.8
2018-07-09T00:04:16.000Z,25.8
2018-07-09T00:05:16.000Z,25.8
2018-07-09T00:07:16.000Z,25.8
2018-07-09T00:09:16.000Z,25.8
2018-07-09T00:10:16.000Z,25.8
2018-07-09T00:12:16.000Z,25.9
2018-07-09T00:13:16.000Z,25.9
2018-07-09T00:14:16.000Z,26
2018-07-09T00:16:16.000Z,26.1
2018-07-09T00:18:16.000Z,26
2018-07-09T00:19:16.000Z,26
2018-07-09T00:21:16.000Z,25.9
2018-07-09T00:22:16.000Z,25.9
2018-07-09T00:24:16.000Z,25.9
2018-07-09T00:26:16.000Z,25.8
2018-07-09T00:28:16.000Z,25.8
2018-07-09T00:29:16.000Z,25.8
2018-07-09T00:30:16.000Z,25.8
2018-07-09T00:32:16.000Z,25.8
2018-07-09T00:33:16.000Z,25.8
2018-07-09T00:34:16.000Z,25.8
2018-07-09T00:35:16.000Z,25.9
2018-07-09T00:37:16.000Z,25.8
2018-07-09T00:38:16.000Z,25.8
2018-07-09T00:40:16.000Z,25.7
2018-07-09T00:42:16.000Z,25.6
2018-07-09T00:44:16.000Z,25.4
2018-07-09T00:45:16.000Z,25.4
2018-07-09T00:47:16.000Z,25.5
2018-07-09T00:48:16.000Z,25.5
2018-07-09T00:50:16.000Z,25.5
2018-07-09T00:51:16.000Z,25.5
2018-07-09T00:53:15.000Z,25.6
2018-07-09T00:55:15.000Z,25.6
2018-07-09T00:56:15.000Z,25.6
2018-07-09T00:58:15.000Z,25.6
2018-07-09T00:59:15.000Z,25.6
2018-07-09T01:01:15.000Z,25.5
2018-07-09T01:03:15.000Z,25.5
2018-07-09T01:05:15.000Z,25.4
2018-07-09T01:06:15.000Z,25.5
2018-07-09T01:08:15.000Z,25.5
2018-07-09T01:10:00.000Z,25.5
2018-07-09T01:11:15.000Z,25.5
2018-07-09T01:12:15.000Z,25.5
2018-07-09T01:14:00.000Z,25.5
2018-07-09T01:15:15.000Z,25.5
2018-07-09T01:17:15.000Z,25.4
2018-07-09T01:18:15.000Z,25.4
2018-07-09T01:19:15.000Z,25.4
2018-07-09T01:21:15.000Z,25.3
2018-07-09T01:22:15.000Z,25.3
2018-07-09T01:24:15.000Z,25.3
2018-07-09T01:25:15.000Z,25.2
2018-07-09T01:27:15.000Z,25.2
2018-07-09T01:28:15.000Z,25.2
2018-07-09T01:29:15.000Z,25.3
2018-07-09T01:30:15.000Z,25.3
2018-07-09T01:32:15.000Z,25.4
2018-07-09T01:34:00.000Z,25.3
2018-07-09T01:35:15.000Z,25.3
2018-07-09T01:36:15.000Z,25.2
2018-07-09T01:38:15.000Z,25.2
2018-07-09T01:39:15.000Z,25.2
2018-07-09T01:41:15.000Z,25.2
2018-07-09T01:42:15.000Z,25.2
2018-07-09T01:43:15.000Z,25.2
2018-07-09T01:45:15.000Z,25.2
2018-07-09T01:46:15.000Z,25.2
2018-07-09T01:47:15.000Z,25.2
2018-07-09T01:49:15.000Z,25.2
2018-07-09T01:50:15.000Z,25.2
2018-07-09T01:52:15.000Z,25.2
2018-07-09T01:54:15.000Z,25.1
2018-07-09T01:56:15.000Z,25
2018-07-09T01:57:16.000Z,24.9
2018-07-09T01:59:16.000Z,24.9
2018-07-09T02:01:16.000Z,24.9
2018-07-09T02:03:16.000Z,24.9
2018-07-09T02:05:16.000Z,24.8
2018-07-09T02:07:16.000Z,24.8
2018-07-09T02:09:16.000Z,24.7
2018-07-09T02:10:16.000Z,24.7
2018-07-09T02:12:16.000Z,24.7
2018-07-09T02:13:16.000Z,24.7
2018-07-09T02:15:16.000Z,24.8
2018-07-09T02:16:16.000Z,24.8
2018-07-09T02:17:16.000Z,24.8
2018-07-09T02:19:16.000Z,24.8
2018-07-09T02:20:16.000Z,24.7
2018-07-09T02:21:16.000Z,24.7
2018-07-09T02:23:16.000Z,24.6
2018-07-09T02:25:16.000Z,24.5
2018-07-09T02:27:01.000Z,24.4
2018-07-09T02:28:16.000Z,24.4
2018-07-09T02:29:16.000Z,24.4
2018-07-09T02:31:16.000Z,24.4
2018-07-09T02:33:16.000Z,24.5
2018-07-09T02:34:16.000Z,24.5
2018-07-09T02:35:16.000Z,24.6
2018-07-09T02:37:16.000Z,24.6
2018-07-09T02:39:16.000Z,24.6
2018-07-09T02:40:16.000Z,24.5
2018-07-09T02:42:01.000Z,24.6
2018-07-09T02:43:16.000Z,24.6
2018-07-09T02:44:16.000Z,24.6
2018-07-09T02:46:16.000Z,24.7
2018-07-09T02:47:16.000Z,24.7
2018-07-09T02:48:16.000Z,24.8
2018-07-09T02:50:16.000Z,24.8
2018-07-09T02:51:16.000Z,24.8
2018-07-09T02:53:16.000Z,24.8
2018-07-09T02:54:16.000Z,24.7
2018-07-09T02:55:16.000Z,24.7
2018-07-09T02:56:16.000Z,24.7
2018-07-09T02:57:16.000Z,24.7
2018-07-09T02:59:01.000Z,24.7
2018-07-09T03:00:15.000Z,24.6
2018-07-09T03:01:15.000Z,24.6
2018-07-09T03:02:15.000Z,24.6
2018-07-09T03:04:15.000Z,24.5
2018-07-09T03:06:15.000Z,24.4
2018-07-09T03:08:15.000Z,24.2
2018-07-09T03:10:15.000Z,24.1
2018-07-09T03:12:15.000Z,24.1
2018-07-09T03:14:15.000Z,24
2018-07-09T03:16:15.000Z,24.1
2018-07-09T03:18:15.000Z,24.1
2018-07-09T03:19:15.000Z,24.1
2018-07-09T03:21:15.000Z,24.1
2018-07-09T03:23:15.000Z,24.1
2018-07-09T03:24:15.000Z,24.1
2018-07-09T03:25:15.000Z,24.1
2018-07-09T03:27:15.000Z,24.1
2018-07-09T03:29:15.000Z,24.1
2018-07-09T03:31:15.000Z,24
2018-07-09T03:33:15.000Z,24
2018-07-09T03:35:15.000Z,23.9
2018-07-09T03:36:15.000Z,24
2018-07-09T03:38:15.000Z,24
2018-07-09T03:39:15.000Z,24.1
2018-07-09T03:40:15.000Z,24.2
2018-07-09T03:42:15.000Z,24.3
2018-07-09T03:44:15.000Z,24.3
2018-07-09T03:46:15.000Z,24.3
2018-07-09T03:47:15.000Z,24.3
2018-07-09T03:49:15.000Z,24.3
2018-07-09T03:50:15.000Z,24.3
2018-07-09T03:52:15.000Z,24.4
2018-07-09T03:53:15.000Z,24.4
2018-07-09T03:55:15.000Z,24.4
2018-07-09T03:56:15.000Z,24.4
2018-07-09T03:57:15.000Z,24.5
2018-07-09T03:59:15.000Z,24.5
2018-07-09T04:01:15.000Z,24.4
2018-07-09T04:02:15.000Z,24.5
2018-07-09T04:03:15.000Z,24.5
2018-07-09T04:05:15.000Z,24.6
2018-07-09T04:06:15.000Z,24.7
2018-07-09T04:08:15.000Z,24.7
2018-07-09T04:10:15.000Z,24.8
2018-07-09T04:12:00.000Z,24.7
2018-07-09T04:13:15.000Z,24.7
2018-07-09T04:14:15.000Z,24.7
2018-07-09T04:15:15.000Z,24.7
2018-07-09T04:16:15.000Z,24.7
2018-07-09T04:18:15.000Z,24.8
2018-07-09T04:20:15.000Z,24.8
2018-07-09T04:21:15.000Z,24.8
2018-07-09T04:23:15.000Z,24.7
2018-07-09T04:24:15.000Z,24.7
2018-07-09T04:25:15.000Z,24.7
2018-07-09T04:27:15.000Z,24.7
2018-07-09T04:29:00.000Z,24.7
2018-07-09T04:30:15.000Z,24.7
2018-07-09T04:31:15.000Z,24.7
2018-07-09T04:33:15.000Z,24.9
2018-07-09T04:34:15.000Z,24.9
2018-07-09T04:36:00.000Z,24.9
2018-07-09T04:37:15.000Z,25
2018-07-09T04:39:00.000Z,25
2018-07-09T04:40:15.000Z,25
2018-07-09T04:41:15.000Z,25
2018-07-09T04:43:15.000Z,25
2018-07-09T04:44:15.000Z,25
2018-07-09T04:46:15.000Z,25
2018-07-09T04:48:15.000Z,24.9
2018-07-09T04:50:15.000Z,24.8
2018-07-09T04:52:15.000Z,24.7
2018-07-09T04:54:15.000Z,24.7
2018-07-09T04:55:15.000Z,24.7
2018-07-09T04:56:15.000Z,24.7
2018-07-09T04:58:15.000Z,24.7
2018-07-09T04:59:15.000Z,24.8
2018-07-09T05:00:15.000Z,24.9
2018-07-09T05:02:15.000Z,24.9
2018-07-09T05:03:15.000Z,24.9
2018-07-09T05:04:15.000Z,25
2018-07-09T05:05:15.000Z,25
2018-07-09T05:06:15.000Z,25.1
2018-07-09T05:07:15.000Z,25.1
2018-07-09T05:09:16.000Z,25.2
2018-07-09T05:10:16.000Z,25.2
2018-07-09T05:11:16.000Z,25.3
2018-07-09T05:13:16.000Z,25.3
2018-07-09T05:15:00.000Z,25.4
2018-07-09T05:16:16.000Z,25.3
2018-07-09T05:17:16.000Z,25.3
2018-07-09T05:18:16.000Z,25.4
2018-07-09T05:20:16.000Z,25.5
2018-07-09T05:21:16.000Z,25.5
2018-07-09T05:22:16.000Z,25.5
2018-07-09T05:24:16.000Z,25.5
2018-07-09T05:25:16.000Z,25.5
2018-07-09T05:27:16.000Z,25.6
2018-07-09T05:28:16.000Z,25.6
2018-07-09T05:30:00.000Z,25.6
2018-07-09T05:31:16.000Z,25.6
2018-07-09T05:33:16.000Z,25.6
2018-07-09T05:34:16.000Z,25.6
2018-07-09T05:35:16.000Z,25.6
2018-07-09T05:36:16.000Z,25.7
2018-07-09T05:37:16.000Z,25.8
2018-07-09T05:39:16.000Z,25.8
2018-07-09T05:41:16.000Z,25.8
2018-07-09T05:43:16.000Z,25.7
2018-07-09T05:44:16.000Z,25.7
2018-07-09T05:45:16.000Z,25.8
2018-07-09T05:47:16.000Z,25.9
2018-07-09T05:49:16.000Z,25.9
2018-07-09T05:51:16.000Z,25.8
2018-07-09T05:53:16.000Z,25.8
2018-07-09T05:55:16.000Z,25.8
2018-07-09T05:57:16.000Z,25.9
2018-07-09T05:59:16.000Z,25.9
2018-07-09T06:00:16.000Z,25.9
2018-07-09T06:02:16.000Z,26
2018-07-09T06:03:16.000Z,26.1
2018-07-09T06:04:16.000Z,26.1
2018-07-09T06:06:16.000Z,26.2
2018-07-09T06:07:16.000Z,26.2
2018-07-09T06:09:16.000Z,26.2
2018-07-09T06:11:00.000Z,26.2
2018-07-09T06:12:16.000Z,26.1
2018-07-09T06:13:16.000Z,26.2
2018-07-09T06:15:16.000Z,26.3
2018-07-09T06:16:16.000Z,26.3
2018-07-09T06:17:16.000Z,26.4
2018-07-09T06:18:16.000Z,26.5
2018-07-09T06:20:16.000Z,26.5
2018-07-09T06:22:16.000Z,26.5
2018-07-09T06:24:16.000Z,26.5
2018-07-09T06:25:16.000Z,26.5
2018-07-09T06:27:16.000Z,26.6
2018-07-09T06:28:16.000Z,26.6
2018-07-09T06:29:16.000Z,26.7
2018-07-09T06:31:16.000Z,26.8
2018-07-09T06:32:16.000Z,26.8
2018-07-09T06:33:16.000Z,26.8
2018-07-09T06:34:16.000Z,26.9
2018-07-09T06:35:16.000Z,27
2018-07-09T06:37:16.000Z,27
2018-07-09T06:38:16.000Z,27
2018-07-09T06:40:16.000Z,27
2018-07-09T06:41:16.000Z,27.1
2018-07-09T06:43:00.000Z,27.2
2018-07-09T06:44:16.000Z,27.1
2018-07-09T06:46:16.000Z,27
2018-07-09T06:48:16.000Z,27
2018-07-09T06:52:16.000Z,26.6
2018-07-09T06:54:02.000Z,26.6
2018-07-09T06:55:02.000Z,26.6
2018-07-09T06:57:02.000Z,26.8
2018-07-09T06:58:02.000Z,26.9
2018-07-09T07:00:02.000Z,27
2018-07-09T07:01:02.000Z,27.1
2018-07-09T07:03:02.000Z,27.2
2018-07-09T07:05:02.000Z,27.3
2018-07-09T07:06:02.000Z,27.3
2018-07-09T07:08:02.000Z,27.4
2018-07-09T07:10:02.000Z,27.5
2018-07-09T07:11:02.000Z,27.5
2018-07-09T07:13:02.000Z,27.6
2018-07-09T07:14:01.000Z,27.6
2018-07-09T07:16:01.000Z,27.7
2018-07-09T07:19:47.000Z,27.4
2018-07-09T07:21:47.000Z,27.5
2018-07-09T07:22:47.000Z,27.5
2018-07-09T07:24:47.000Z,27.6
2018-07-09T07:26:47.000Z,27.6
2018-07-09T07:27:47.000Z,27.6
2018-07-09T07:29:47.000Z,27.8
2018-07-09T07:30:47.000Z,27.9
2018-07-09T07:32:47.000Z,28
2018-07-09T07:34:47.000Z,28.1
2018-07-09T07:36:47.000Z,28.1
2018-07-09T07:37:47.000Z,28.2
2018-07-09T07:39:47.000Z,28.4
2018-07-09T07:40:47.000Z,28.5
2018-07-09T07:41:47.000Z,28.6
2018-07-09T07:43:47.000Z,28.8
2018-07-09T07:44:47.000Z,28.9
2018-07-09T07:46:47.000Z,29
2018-07-09T07:48:47.000Z,29.1
2018-07-09T07:49:47.000Z,29.1
2018-07-09T07:51:47.000Z,29.2
2018-07-09T07:52:47.000Z,29.3
2018-07-09T07:54:47.000Z,29.4
2018-07-09T07:55:47.000Z,29.4
2018-07-09T07:57:47.000Z,29.6
2018-07-09T07:59:32.000Z,29.7
2018-07-09T08:00:47.000Z,29.8
2018-07-09T08:02:47.000Z,29.8
2018-07-09T08:03:47.000Z,29.8
2018-07-09T08:05:47.000Z,30
2018-07-09T08:07:47.000Z,30.1
2018-07-09T08:08:47.000Z,30.1
2018-07-09T08:09:47.000Z,30.2
2018-07-09T08:11:32.000Z,30.4
2018-07-09T08:12:47.000Z,30.3
2018-07-09T08:13:47.000Z,30.2
2018-07-09T08:14:47.000Z,30.2
2018-07-09T08:15:47.000Z,30.2
2018-07-09T08:16:47.000Z,30.3
2018-07-09T08:18:48.000Z,30.5
2018-07-09T08:20:48.000Z,30.6
2018-07-09T08:22:48.000Z,30.5
2018-07-09T08:24:48.000Z,30.4
2018-07-09T08:25:48.000Z,30.3
2018-07-09T08:27:48.000Z,30.2
2018-07-09T08:28:48.000Z,30.2
2018-07-09T08:29:48.000Z,30.3
2018-07-09T08:31:48.000Z,30.3
2018-07-09T08:33:33.000Z,30.3
2018-07-09T08:34:48.000Z,30.4
2018-07-09T08:35:48.000Z,30.4
2018-07-09T08:36:48.000Z,30.5
2018-07-09T08:38:48.000Z,30.7
2018-07-09T08:40:48.000Z,30.6
2018-07-09T08:42:48.000Z,30.6
2018-07-09T08:43:48.000Z,30.6
2018-07-09T08:44:48.000Z,30.7
2018-07-09T08:46:33.000Z,30.8
2018-07-09T08:47:48.000Z,30.9
2018-07-09T08:49:48.000Z,30.9
2018-07-09T08:50:48.000Z,31
2018-07-09T08:52:48.000Z,31.2
2018-07-09T08:53:48.000Z,31.3
2018-07-09T08:55:48.000Z,31.1
2018-07-09T08:57:48.000Z,30.8
2018-07-09T08:59:48.000Z,30.4
2018-07-09T09:01:48.000Z,30
2018-07-09T09:03:48.000Z,29.8
2018-07-09T09:04:48.000Z,29.7
2018-07-09T09:05:48.000Z,29.7
2018-07-09T09:07:48.000Z,29.7
2018-07-09T09:08:48.000Z,29.7
2018-07-09T09:10:48.000Z,29.7
2018-07-09T09:12:48.000Z,29.6
2018-07-09T09:14:48.000Z,29.6
2018-07-09T09:15:48.000Z,29.6
2018-07-09T09:17:48.000Z,29.6
2018-07-09T09:18:48.000Z,29.5
2018-07-09T09:20:48.000Z,29.6
2018-07-09T09:22:32.000Z,29.6
2018-07-09T09:23:47.000Z,29.5
2018-07-09T09:25:47.000Z,29.5
2018-07-09T09:29:33.000Z,29.1
2018-07-09T09:31:33.000Z,29.1
2018-07-09T09:33:33.000Z,29.2
2018-07-09T09:34:33.000Z,29.2
2018-07-09T09:36:18.000Z,29.4
2018-07-09T09:37:33.000Z,29.4
2018-07-09T09:39:33.000Z,29.4
2018-07-09T09:40:33.000Z,29.4
2018-07-09T09:41:33.000Z,29.5
2018-07-09T09:43:33.000Z,29.5
2018-07-09T09:44:33.000Z,29.6
2018-07-09T09:45:33.000Z,29.6
2018-07-09T09:46:33.000Z,29.8
2018-07-09T09:48:33.000Z,29.9
2018-07-09T09:50:33.000Z,29.8
2018-07-09T09:51:33.000Z,29.8
2018-07-09T09:53:33.000Z,29.8
2018-07-09T09:54:33.000Z,29.8
2018-07-09T09:56:33.000Z,29.9
2018-07-09T09:57:33.000Z,29.9
2018-07-09T09:59:33.000Z,29.8
2018-07-09T10:00:33.000Z,29.8
2018-07-09T10:01:33.000Z,29.7
2018-07-09T10:03:18.000Z,29.8
2018-07-09T10:04:33.000Z,29.7
2018-07-09T10:06:33.000Z,29.7
2018-07-09T10:07:33.000Z,29.7
2018-07-09T10:09:33.000Z,29.6
2018-07-09T10:10:33.000Z,29.7
2018-07-09T10:12:33.000Z,29.7
2018-07-09T10:14:18.000Z,29.7
2018-07-09T10:15:33.000Z,29.7
2018-07-09T10:17:33.000Z,29.7
2018-07-09T10:19:33.000Z,29.6
2018-07-09T10:21:33.000Z,29.6
2018-07-09T10:23:33.000Z,29.5
2018-07-09T10:25:33.000Z,29.5
2018-07-09T10:27:33.000Z,29.5
2018-07-09T10:29:33.000Z,29.5
2018-07-09T10:30:33.000Z,29.5
2018-07-09T10:32:33.000Z,29.6
2018-07-09T10:34:33.000Z,29.6
2018-07-09T10:36:33.000Z,29.6
2018-07-09T10:37:33.000Z,29.6
2018-07-09T10:39:33.000Z,29.7
2018-07-09T10:41:33.000Z,29.7
2018-07-09T10:42:33.000Z,29.7
2018-07-09T10:43:33.000Z,29.8
2018-07-09T10:45:33.000Z,29.9
2018-07-09T10:46:33.000Z,29.9
2018-07-09T10:47:33.000Z,29.9
2018-07-09T10:49:33.000Z,29.9
2018-07-09T10:51:33.000Z,29.9
2018-07-09T10:52:33.000Z,29.9
2018-07-09T10:53:33.000Z,29.9
2018-07-09T10:54:33.000Z,29.9
2018-07-09T10:56:18.000Z,30
2018-07-09T10:57:33.000Z,30
2018-07-09T10:59:33.000Z,29.9
2018-07-09T11:00:33.000Z,29.9
2018-07-09T11:01:33.000Z,30
2018-07-09T11:03:18.000Z,30.1
2018-07-09T11:04:33.000Z,30
2018-07-09T11:06:33.000Z,30
2018-07-09T11:08:18.000Z,29.9
2018-07-09T11:09:33.000Z,29.9
2018-07-09T11:10:33.000Z,29.8
2018-07-09T11:12:33.000Z,29.8
2018-07-09T11:14:33.000Z,29.7
2018-07-09T11:16:33.000Z,29.7
2018-07-09T11:18:18.000Z,29.7
2018-07-09T11:19:33.000Z,29.7
2018-07-09T11:20:33.000Z,29.7
2018-07-09T11:22:33.000Z,29.8
2018-07-09T11:24:33.000Z,29.8
2018-07-09T11:26:33.000Z,29.7
2018-07-09T11:28:33.000Z,29.6
2018-07-09T11:30:33.000Z,29.6
2018-07-09T11:32:33.000Z,29.6
2018-07-09T11:33:33.000Z,29.6
2018-07-09T11:35:33.000Z,29.8
2018-07-09T11:36:33.000Z,29.8
2018-07-09T11:37:33.000Z,29.9
2018-07-09T11:39:33.000Z,30
2018-07-09T11:40:33.000Z,30
2018-07-09T11:42:33.000Z,30
2018-07-09T11:44:33.000Z,30
2018-07-09T11:45:33.000Z,30
2018-07-09T11:47:33.000Z,30
2018-07-09T11:49:33.000Z,29.9
2018-07-09T11:51:33.000Z,29.9
2018-07-09T11:52:33.000Z,29.9
2018-07-09T11:54:33.000Z,29.9
2018-07-09T11:56:33.000Z,29.9
2018-07-09T11:58:33.000Z,29.9
2018-07-09T12:00:33.000Z,29.8
2018-07-09T12:02:33.000Z,29.7
2018-07-09T12:04:33.000Z,29.7
2018-07-09T12:06:33.000Z,29.7
2018-07-09T12:08:33.000Z,29.7
2018-07-09T12:10:33.000Z,29.7
2018-07-09T12:12:33.000Z,29.8
2018-07-09T12:14:33.000Z,29.8
2018-07-09T12:15:33.000Z,29.8
2018-07-09T12:17:33.000Z,29.8
2018-07-09T12:18:33.000Z,29.8
2018-07-09T12:20:33.000Z,29.8
2018-07-09T12:21:33.000Z,29.9
2018-07-09T12:23:33.000Z,29.8
2018-07-09T12:24:33.000Z,29.8
2018-07-09T12:26:33.000Z,29.8
2018-07-09T12:28:18.000Z,29.8
2018-07-09T12:29:33.000Z,29.7
2018-07-09T12:31:33.000Z,29.7
2018-07-09T12:32:34.000Z,29.7
2018-07-09T12:33:34.000Z,29.8
2018-07-09T12:35:34.000Z,29.8
2018-07-09T12:37:34.000Z,29.7
2018-07-09T12:39:34.000Z,29.6
2018-07-09T12:40:34.000Z,29.7
2018-07-09T12:41:34.000Z,29.8
2018-07-09T12:43:34.000Z,29.7
2018-07-09T12:45:19.000Z,29.8
2018-07-09T12:46:34.000Z,29.7
2018-07-09T12:48:34.000Z,29.8
2018-07-09T12:49:34.000Z,29.8
2018-07-09T12:51:34.000Z,29.9
2018-07-09T12:52:34.000Z,29.9
2018-07-09T12:53:34.000Z,30
2018-07-09T12:55:19.000Z,30
2018-07-09T12:56:34.000Z,30
2018-07-09T12:57:34.000Z,30
2018-07-09T12:59:34.000Z,30.1
2018-07-09T13:00:34.000Z,30.1
2018-07-09T13:02:34.000Z,30.1
2018-07-09T13:04:34.000Z,30
2018-07-09T13:06:34.000Z,30
2018-07-09T13:07:34.000Z,30.1
2018-07-09T13:09:34.000Z,30.1
2018-07-09T13:10:34.000Z,30.2
2018-07-09T13:11:34.000Z,30.2
2018-07-09T13:13:34.000Z,30.3
2018-07-09T13:14:34.000Z,30.3
2018-07-09T13:15:34.000Z,30.4
2018-07-09T13:16:34.000Z,30.4
2018-07-09T13:18:34.000Z,30.5
2018-07-09T13:19:34.000Z,30.5
2018-07-09T13:21:34.000Z,30.5
2018-07-09T13:22:34.000Z,30.5
2018-07-09T13:24:34.000Z,30.5
2018-07-09T13:26:34.000Z,30.4
2018-07-09T13:27:34.000Z,30.4
2018-07-09T13:29:34.000Z,30.4
2018-07-09T13:31:34.000Z,30.3
2018-07-09T13:33:34.000Z,30.2
2018-07-09T13:35:34.000Z,30.1
2018-07-09T13:37:34.000Z,30.1
2018-07-09T13:38:34.000Z,30.1
2018-07-09T13:39:34.000Z,30.2
2018-07-09T13:40:34.000Z,30.2
2018-07-09T13:42:34.000Z,30.3
2018-07-09T13:43:34.000Z,30.3
2018-07-09T13:45:34.000Z,30.4
2018-07-09T13:46:34.000Z,30.4
2018-07-09T13:48:34.000Z,30.4
2018-07-09T13:49:34.000Z,30.5
2018-07-09T13:51:34.000Z,30.5
2018-07-09T13:53:34.000Z,30.5
2018-07-09T13:54:34.000Z,30.6
2018-07-09T13:55:34.000Z,30.6
2018-07-09T13:57:34.000Z,30.6
2018-07-09T13:58:34.000Z,30.6
2018-07-09T14:00:34.000Z,30.6
2018-07-09T14:02:34.000Z,30.6
2018-07-09T14:03:34.000Z,30.6
2018-07-09T14:05:18.000Z,30.6
2018-07-09T14:06:34.000Z,30.5
2018-07-09T14:08:34.000Z,30.5
2018-07-09T14:10:34.000Z,30.4
2018-07-09T14:12:34.000Z,30.4
2018-07-09T14:13:34.000Z,30.3
2018-07-09T14:15:18.000Z,30.3
2018-07-09T14:16:34.000Z,30.3
2018-07-09T14:17:34.000Z,30.3
2018-07-09T14:19:34.000Z,30.3
2018-07-09T14:21:34.000Z,30.4
2018-07-09T14:22:34.000Z,30.4
2018-07-09T14:24:34.000Z,30.4
2018-07-09T14:25:34.000Z,30.4
2018-07-09T14:27:34.000Z,30.4
2018-07-09T14:28:34.000Z,30.4
2018-07-09T14:30:34.000Z,30.4
2018-07-09T14:32:34.000Z,30.3
2018-07-09T14:34:18.000Z,30.3
2018-07-09T14:35:34.000Z,30.3
2018-07-09T14:37:34.000Z,30.3
2018-07-09T14:39:33.000Z,30.2
2018-07-09T14:43:20.000Z,29.9
2018-07-09T14:44:20.000Z,29.9
2018-07-09T14:46:20.000Z,30
2018-07-09T14:48:20.000Z,30.2
2018-07-09T14:49:20.000Z,30.3
2018-07-09T14:50:20.000Z,30.3
2018-07-09T14:51:20.000Z,30.4
2018-07-09T14:53:20.000Z,30.6
2018-07-09T14:54:20.000Z,30.7
2018-07-09T14:56:20.000Z,30.8
2018-07-09T14:58:20.000Z,30.9
2018-07-09T14:59:20.000Z,30.9
2018-07-09T15:00:20.000Z,30.9
2018-07-09T15:02:20.000Z,31
2018-07-09T15:04:20.000Z,30.9
2018-07-09T15:05:20.000Z,30.9
2018-07-09T15:06:20.000Z,30.8
2018-07-09T15:08:20.000Z,30.8
2018-07-09T15:10:20.000Z,30.7
2018-07-09T15:11:20.000Z,30.7
2018-07-09T15:13:20.000Z,30.7
2018-07-09T15:15:20.000Z,30.8
2018-07-09T15:16:20.000Z,30.8
2018-07-09T15:17:20.000Z,30.9
2018-07-09T15:19:20.000Z,31
2018-07-09T15:20:20.000Z,31
2018-07-09T15:22:20.000Z,31.1
2018-07-09T15:24:20.000Z,31.1
2018-07-09T15:26:20.000Z,31.1
2018-07-09T15:28:20.000Z,31.1
2018-07-09T15:30:20.000Z,31.2
2018-07-09T15:32:05.000Z,31.3
2018-07-09T15:33:20.000Z,31.3
2018-07-09T15:35:20.000Z,31.3
2018-07-09T15:37:20.000Z,31.4
2018-07-09T15:39:20.000Z,31.3
2018-07-09T15:40:20.000Z,31.3
2018-07-09T15:42:05.000Z,31.4
2018-07-09T15:43:20.000Z,31.4
2018-07-09T15:44:20.000Z,31.4
2018-07-09T15:46:20.000Z,31.5
2018-07-09T15:48:04.000Z,31.4
2018-07-09T15:49:20.000Z,31.4
2018-07-09T15:51:20.000Z,31.4
2018-07-09T15:52:20.000Z,31.4
2018-07-09T15:54:20.000Z,31.5
2018-07-09T15:56:20.000Z,31.6
2018-07-09T15:57:20.000Z,31.6
2018-07-09T15:58:20.000Z,31.7
2018-07-09T16:00:20.000Z,31.8
2018-07-09T16:01:20.000Z,31.9
2018-07-09T16:03:20.000Z,31.9
2018-07-09T16:04:20.000Z,31.9
2018-07-09T16:05:20.000Z,31.9
2018-07-09T16:07:20.000Z,32
2018-07-09T16:08:20.000Z,32
2018-07-09T16:10:20.000Z,32
2018-07-09T16:12:20.000Z,32
2018-07-09T16:14:20.000Z,31.9
2018-07-09T16:15:20.000Z,31.9
2018-07-09T16:17:20.000Z,31.8
2018-07-09T16:18:20.000Z,31.8
2018-07-09T16:20:20.000Z,31.8
2018-07-09T16:22:20.000Z,31.8
2018-07-09T16:24:20.000Z,31.8
2018-07-09T16:25:20.000Z,31.8
2018-07-09T16:27:20.000Z,31.9
2018-07-09T16:29:20.000Z,31.8
2018-07-09T16:30:20.000Z,31.8
2018-07-09T16:32:20.000Z,31.9
2018-07-09T16:34:20.000Z,31.8
2018-07-09T16:35:20.000Z,31.8
2018-07-09T16:36:20.000Z,31.9
2018-07-09T16:37:20.000Z,32
2018-07-09T16:39:20.000Z,32
2018-07-09T16:40:20.000Z,32
2018-07-09T16:42:20.000Z,32
2018-07-09T16:43:20.000Z,32
2018-07-09T16:44:20.000Z,32.1
2018-07-09T16:46:19.000Z,32.1
2018-07-09T16:47:19.000Z,32.2
2018-07-09T16:49:19.000Z,32.2
2018-07-09T16:51:19.000Z,32.1
2018-07-09T16:53:19.000Z,32
2018-07-09T16:54:19.000Z,32
2018-07-09T16:56:19.000Z,32
2018-07-09T16:58:19.000Z,31.9
2018-07-09T16:59:19.000Z,31.9
2018-07-09T17:00:19.000Z,31.9
2018-07-09T17:02:19.000Z,31.9
2018-07-09T17:04:04.000Z,31.9
2018-07-09T17:05:19.000Z,31.8
2018-07-09T17:06:19.000Z,31.8
2018-07-09T17:08:19.000Z,31.8
2018-07-09T17:09:19.000Z,31.8
2018-07-09T17:11:19.000Z,31.8
2018-07-09T17:12:19.000Z,31.8
2018-07-09T17:13:19.000Z,31.8
2018-07-09T17:15:19.000Z,31.8
2018-07-09T17:16:19.000Z,31.8
2018-07-09T17:18:19.000Z,31.8
2018-07-09T17:19:19.000Z,31.8
2018-07-09T17:21:04.000Z,31.8
2018-07-09T17:22:19.000Z,31.7
2018-07-09T17:23:19.000Z,31.7
2018-07-09T17:24:19.000Z,31.7
2018-07-09T17:26:19.000Z,31.8
2018-07-09T17:27:19.000Z,31.8
2018-07-09T17:29:19.000Z,31.8
2018-07-09T17:30:19.000Z,31.8
2018-07-09T17:31:19.000Z,31.8
2018-07-09T17:32:19.000Z,31.8
2018-07-09T17:34:19.000Z,31.8
2018-07-09T17:35:19.000Z,31.7
2018-07-09T17:36:19.000Z,31.7
2018-07-09T17:38:19.000Z,31.7
2018-07-09T17:39:19.000Z,31.7
2018-07-09T17:41:19.000Z,31.7
2018-07-09T17:42:19.000Z,31.7
2018-07-09T17:44:19.000Z,31.8
2018-07-09T17:45:19.000Z,31.8
2018-07-09T17:47:19.000Z,31.7
2018-07-09T17:49:04.000Z,31.6
2018-07-09T17:50:19.000Z,31.6
2018-07-09T17:52:19.000Z,31.6
2018-07-09T17:54:19.000Z,31.5
2018-07-09T17:55:19.000Z,31.5
2018-07-09T17:57:19.000Z,31.4
2018-07-09T17:59:19.000Z,31.4
2018-07-09T18:01:19.000Z,31.4
2018-07-09T18:03:19.000Z,31.3
2018-07-09T18:04:19.000Z,31.3
2018-07-09T18:06:19.000Z,31.4
2018-07-09T18:08:19.000Z,31.4
2018-07-09T18:10:19.000Z,31.4
2018-07-09T18:11:19.000Z,31.4
2018-07-09T18:12:19.000Z,31.4
2018-07-09T18:14:19.000Z,31.5
2018-07-09T18:16:19.000Z,31.4
2018-07-09T18:17:19.000Z,31.4
2018-07-09T18:19:19.000Z,31.3
2018-07-09T18:20:19.000Z,31.3
2018-07-09T18:22:19.000Z,31.3
2018-07-09T18:24:19.000Z,31.2
2018-07-09T18:25:19.000Z,31.2
2018-07-09T18:27:19.000Z,31.2
2018-07-09T18:29:19.000Z,31.2
2018-07-09T18:31:19.000Z,31.2
2018-07-09T18:33:19.000Z,31.2
2018-07-09T18:35:19.000Z,31.2
2018-07-09T18:36:19.000Z,31.2
2018-07-09T18:38:19.000Z,31.3
2018-07-09T18:40:19.000Z,31.3
2018-07-09T18:41:19.000Z,31.3
2018-07-09T18:43:19.000Z,31.3
2018-07-09T18:45:19.000Z,31.2
2018-07-09T18:46:19.000Z,31.2
2018-07-09T18:48:19.000Z,31.2
2018-07-09T18:50:19.000Z,31.2
2018-07-09T18:51:19.000Z,31.2
2018-07-09T18:53:20.000Z,31.2
2018-07-09T18:55:20.000Z,31.2
2018-07-09T18:56:20.000Z,31.2
2018-07-09T18:58:20.000Z,31.2
2018-07-09T18:59:20.000Z,31.2
2018-07-09T19:01:20.000Z,31.2
2018-07-09T19:02:20.000Z,31.2
2018-07-09T19:03:20.000Z,31.2
2018-07-09T19:04:20.000Z,31.3
2018-07-09T19:05:20.000Z,31.3
2018-07-09T19:07:20.000Z,31.3
2018-07-09T19:09:20.000Z,31.2
2018-07-09T19:11:20.000Z,31.1
2018-07-09T19:12:20.000Z,31.1
2018-07-09T19:13:20.000Z,31.1
2018-07-09T19:15:20.000Z,31.1
2018-07-09T19:17:20.000Z,31.1
2018-07-09T19:19:05.000Z,31.1
2018-07-09T19:20:20.000Z,31
2018-07-09T19:21:20.000Z,31
2018-07-09T19:23:20.000Z,31
2018-07-09T19:24:20.000Z,31
2018-07-09T19:26:20.000Z,31
2018-07-09T19:27:20.000Z,31
2018-07-09T19:28:20.000Z,31
2018-07-09T19:29:20.000Z,31
2018-07-09T19:30:20.000Z,31.1
2018-07-09T19:31:20.000Z,31.1
2018-07-09T19:33:20.000Z,31.1
2018-07-09T19:35:20.000Z,31
2018-07-09T19:36:20.000Z,31
2018-07-09T19:38:20.000Z,31
2018-07-09T19:40:20.000Z,30.9
2018-07-09T19:42:20.000Z,30.9
2018-07-09T19:44:20.000Z,30.8
2018-07-09T19:46:20.000Z,30.8
2018-07-09T19:48:20.000Z,30.7
2018-07-09T19:49:20.000Z,30.7
2018-07-09T19:51:20.000Z,30.8
2018-07-09T19:53:20.000Z,30.8
2018-07-09T19:54:20.000Z,30.7
2018-07-09T19:56:20.000Z,30.8
2018-07-09T19:58:19.000Z,30.8
2018-07-09T19:59:19.000Z,30.8
2018-07-09T20:00:19.000Z,30.8
2018-07-09T20:02:19.000Z,30.9
2018-07-09T20:04:19.000Z,30.9
2018-07-09T20:05:19.000Z,30.9
2018-07-09T20:07:19.000Z,30.9
2018-07-09T20:09:19.000Z,30.8
2018-07-09T20:10:19.000Z,30.8
2018-07-09T20:11:19.000Z,30.8
2018-07-09T20:13:19.000Z,30.9
2018-07-09T20:14:19.000Z,30.8
2018-07-09T20:15:19.000Z,30.9
2018-07-09T20:16:19.000Z,30.9
2018-07-09T20:18:19.000Z,30.9
2018-07-09T20:19:19.000Z,30.9
2018-07-09T20:21:19.000Z,30.8
2018-07-09T20:23:19.000Z,30.8
2018-07-09T20:25:19.000Z,30.7
2018-07-09T20:26:19.000Z,30.6
2018-07-09T20:28:19.000Z,30.7
2018-07-09T20:29:19.000Z,30.7
2018-07-09T20:30:19.000Z,30.8
2018-07-09T20:32:19.000Z,30.7
2018-07-09T20:33:19.000Z,30.7
2018-07-09T20:34:19.000Z,30.8
2018-07-09T20:36:19.000Z,30.8
2018-07-09T20:37:19.000Z,30.8
2018-07-09T20:39:19.000Z,30.8
2018-07-09T20:41:19.000Z,30.8
2018-07-09T20:43:19.000Z,30.8
2018-07-09T20:44:19.000Z,30.8
2018-07-09T20:46:19.000Z,30.8
2018-07-09T20:47:19.000Z,30.8
2018-07-09T20:49:19.000Z,30.8
2018-07-09T20:51:19.000Z,30.8